createdAt,value
2019-05-28T00:06:13.656Z,23.01
2019-05-28T00:26:22.972Z,24.63
2019-05-28T00:46:34.592Z,27.91
2019-05-28T01:06:33.980Z,20.31
2019-05-28T01:26:43.354Z,19.43
2019-05-28T01:46:54.961Z,19.93
2019-05-28T02:06:54.342Z,22.64
2019-05-28T02:27:03.735Z,21.16
2019-05-28T02:47:13.087Z,17.04
2019-05-28T03:07:22.470Z,19.59
2019-05-28T03:27:31.836Z,18.73
2019-05-28T03:47:41.214Z,25.18
2019-05-28T04:07:55.137Z,21.05
2019-05-28T04:27:54.491Z,17.02
2019-05-28T04:48:06.357Z,15.97
2019-05-28T05:08:05.782Z,13.60
2019-05-28T05:28:15.164Z,13.67
2019-05-28T05:48:26.857Z,11.17
2019-05-28T06:08:26.204Z,14.16
2019-05-28T06:28:35.630Z,15.01
2019-05-28T06:48:43.542Z,17.88
2019-05-28T07:08:52.932Z,20.75
2019-05-28T07:29:02.320Z,18.20
2019-05-28T07:49:11.809Z,16.58
2019-05-28T08:09:21.054Z,15.18
2019-05-28T08:29:30.465Z,17.11
2019-05-28T08:49:40.058Z,13.64
2019-05-28T09:09:49.437Z,15.02
2019-05-28T09:30:01.141Z,15.24
2019-05-28T09:50:00.652Z,14.15
2019-05-28T10:10:09.924Z,17.73
2019-05-28T10:30:19.445Z,20.17
2019-05-28T10:50:31.274Z,14.88
2019-05-28T11:10:30.550Z,14.76
2019-05-28T11:30:41.490Z,11.79
2019-05-28T11:50:40.896Z,14.03
2019-05-28T12:10:52.610Z,12.46
2019-05-28T12:30:51.967Z,17.62
2019-05-28T12:51:03.048Z,15.60
2019-05-28T13:11:12.595Z,16.37
2019-05-28T13:31:14.605Z,16.63
2019-05-28T13:51:16.370Z,14.99
2019-05-28T14:11:18.047Z,16.59
2019-05-28T14:31:19.709Z,12.67
2019-05-28T14:51:19.089Z,13.40
2019-05-28T15:11:29.244Z,21.56
2019-05-28T15:31:28.918Z,20.13
2019-05-28T15:51:39.899Z,14.66
2019-05-28T16:11:39.999Z,13.29
2019-05-28T16:31:40.069Z,13.07
2019-05-28T16:51:39.493Z,17.44
2019-05-28T17:11:48.933Z,12.74
2019-05-28T17:31:58.534Z,17.18
2019-05-28T17:52:06.551Z,24.14
2019-05-28T18:12:15.971Z,18.71
2019-05-28T18:32:25.367Z,14.13
2019-05-28T18:52:34.818Z,15.65
2019-05-28T19:12:44.157Z,13.85
2019-05-28T19:32:53.613Z,11.85
2019-05-28T19:53:07.591Z,11.83
2019-05-28T20:13:06.975Z,10.18
2019-05-28T20:33:16.375Z,9.05
2019-05-28T20:53:35.517Z,8.81
2019-05-28T21:13:37.016Z,9.63
2019-05-28T21:33:37.275Z,9.32
2019-05-28T21:53:38.932Z,8.73
2019-05-28T22:13:38.293Z,9.57
2019-05-28T22:33:47.700Z,7.51
2019-05-28T22:53:57.745Z,8.99
2019-05-28T23:14:06.216Z,9.25
2019-05-28T23:34:15.505Z,8.52
2019-05-28T23:54:24.855Z,9.30
